createdAt,value
2022-08-21T00:01:35.768Z,13.38
2022-08-21T00:04:07.578Z,13.35
2022-08-21T00:06:34.933Z,13.35
2022-08-21T00:09:06.251Z,13.41
2022-08-21T00:11:34.080Z,13.39
2022-08-21T00:14:00.511Z,13.39
2022-08-21T00:16:27.044Z,13.38
2022-08-21T00:18:53.696Z,13.38
2022-08-21T00:21:20.237Z,13.41
2022-08-21T00:23:46.671Z,13.44
2022-08-21T00:26:13.022Z,13.45
2022-08-21T00:28:39.551Z,13.33
2022-08-21T00:31:06.187Z,13.13
2022-08-21T00:33:33.017Z,13.16
2022-08-21T00:35:59.459Z,13.03
2022-08-21T00:38:25.844Z,13.03
2022-08-21T00:40:59.645Z,12.91
2022-08-21T00:43:35.685Z,13.04
2022-08-21T00:46:03.031Z,13.07
2022-08-21T00:48:29.481Z,13.14
2022-08-21T00:51:26.431Z,13.17
2022-08-21T00:54:00.619Z,13.14
2022-08-21T00:56:28.198Z,13.03
2022-08-21T00:58:56.400Z,13.16
2022-08-21T01:01:22.911Z,13.10
2022-08-21T01:03:50.313Z,13.08
2022-08-21T01:06:17.089Z,12.88
2022-08-21T01:08:47.001Z,12.76
2022-08-21T01:11:15.238Z,12.63
2022-08-21T01:13:46.714Z,12.58
2022-08-21T01:16:16.509Z,12.52
2022-08-21T01:18:44.395Z,12.43
2022-08-21T01:21:18.715Z,12.58
2022-08-21T01:23:50.817Z,12.57
2022-08-21T01:26:21.368Z,12.50
2022-08-21T01:28:58.307Z,12.47
2022-08-21T01:31:26.541Z,12.50
2022-08-21T01:33:53.633Z,12.42
2022-08-21T01:36:20.207Z,12.38
2022-08-21T01:38:48.074Z,12.35
2022-08-21T01:41:15.432Z,12.17
2022-08-21T01:43:43.441Z,12.00
2022-08-21T01:46:11.129Z,12.16
2022-08-21T01:48:37.970Z,12.12
2022-08-21T01:51:05.539Z,12.14
2022-08-21T01:53:33.213Z,12.15
2022-08-21T01:56:00.203Z,12.14
2022-08-21T01:58:26.626Z,12.06
2022-08-21T02:00:53.117Z,11.99
2022-08-21T02:03:26.412Z,11.88
2022-08-21T02:06:03.757Z,11.94
2022-08-21T02:08:30.435Z,11.86
2022-08-21T02:10:56.807Z,11.81
2022-08-21T02:13:23.174Z,11.70
2022-08-21T02:15:49.610Z,11.66
2022-08-21T02:18:16.243Z,11.73
2022-08-21T02:20:47.313Z,11.75
2022-08-21T02:23:14.893Z,11.74
2022-08-21T02:25:42.008Z,11.79
2022-08-21T02:28:13.026Z,11.84
2022-08-21T02:30:46.026Z,11.77
2022-08-21T02:33:13.150Z,11.76
2022-08-21T02:35:42.939Z,11.75
2022-08-21T02:38:12.767Z,11.71
2022-08-21T02:40:48.040Z,11.67
2022-08-21T02:43:16.188Z,11.72
2022-08-21T02:45:44.215Z,11.68
2022-08-21T02:48:14.237Z,11.74
2022-08-21T02:50:44.282Z,11.77
2022-08-21T02:53:15.494Z,11.88
2022-08-21T02:55:42.048Z,11.79
2022-08-21T02:58:09.024Z,11.81
2022-08-21T03:00:37.360Z,11.82
2022-08-21T03:03:04.763Z,11.77
2022-08-21T03:05:32.515Z,11.80
2022-08-21T03:08:01.014Z,11.77
2022-08-21T03:10:28.956Z,11.77
2022-08-21T03:12:55.492Z,11.69
2022-08-21T03:15:24.621Z,11.60
2022-08-21T03:17:52.505Z,11.60
2022-08-21T03:20:22.905Z,11.59
2022-08-21T03:22:52.999Z,11.61
2022-08-21T03:25:21.416Z,11.67
2022-08-21T03:27:59.226Z,11.57
2022-08-21T03:30:26.407Z,11.43
2022-08-21T03:32:53.656Z,11.44
2022-08-21T03:35:22.151Z,11.55
2022-08-21T03:37:48.487Z,11.57
2022-08-21T03:40:17.097Z,11.54
2022-08-21T03:42:43.586Z,11.48
2022-08-21T03:45:10.883Z,11.51
2022-08-21T03:47:37.243Z,11.55
2022-08-21T03:50:06.221Z,11.51
2022-08-21T03:52:32.580Z,11.47
2022-08-21T03:54:58.991Z,11.49
2022-08-21T03:57:25.408Z,11.40
2022-08-21T03:59:51.767Z,11.33
2022-08-21T04:02:21.653Z,11.25
2022-08-21T04:04:48.025Z,11.31
2022-08-21T04:07:14.430Z,11.16
2022-08-21T04:09:40.802Z,11.02
2022-08-21T04:12:07.855Z,11.02
2022-08-21T04:14:34.264Z,10.99
2022-08-21T04:17:00.652Z,11.12
2022-08-21T04:19:27.455Z,11.09
2022-08-21T04:21:53.822Z,11.17
2022-08-21T04:24:20.466Z,11.15
2022-08-21T04:26:46.830Z,11.20
2022-08-21T04:29:13.297Z,11.18
2022-08-21T04:31:39.652Z,11.14
2022-08-21T04:34:06.712Z,11.19
2022-08-21T04:36:34.321Z,11.26
2022-08-21T04:39:00.817Z,11.21
2022-08-21T04:41:29.976Z,11.29
2022-08-21T04:43:56.717Z,11.37
2022-08-21T04:46:23.750Z,11.28
2022-08-21T04:48:50.590Z,11.28
2022-08-21T04:51:26.555Z,11.22
2022-08-21T04:54:04.271Z,11.25
2022-08-21T04:56:37.867Z,11.43
2022-08-21T04:59:12.133Z,11.48
2022-08-21T05:01:40.774Z,11.50
2022-08-21T05:04:10.835Z,11.43
2022-08-21T05:06:40.385Z,11.53
2022-08-21T05:09:07.138Z,11.60
2022-08-21T05:11:34.241Z,11.77
2022-08-21T05:14:00.613Z,11.86
2022-08-21T05:16:36.393Z,11.84
2022-08-21T05:19:08.388Z,11.88
2022-08-21T05:21:36.056Z,11.89
2022-08-21T05:24:03.068Z,11.92
2022-08-21T05:26:29.413Z,11.95
2022-08-21T05:28:55.912Z,12.01
2022-08-21T05:31:24.112Z,12.02
2022-08-21T05:33:50.639Z,12.02
2022-08-21T05:36:19.239Z,12.16
2022-08-21T05:38:45.804Z,12.27
2022-08-21T05:41:12.320Z,12.43
2022-08-21T05:43:38.715Z,12.60
2022-08-21T05:46:07.040Z,12.73
2022-08-21T05:48:34.407Z,12.89
2022-08-21T05:51:13.143Z,13.10
2022-08-21T05:53:42.954Z,13.20
2022-08-21T05:56:10.814Z,13.41
2022-08-21T05:58:37.376Z,13.60
2022-08-21T06:01:04.675Z,13.64
2022-08-21T06:03:34.858Z,13.59
2022-08-21T06:06:02.328Z,13.62
2022-08-21T06:08:29.724Z,13.75
2022-08-21T06:10:58.344Z,13.72
2022-08-21T06:13:24.803Z,13.98
2022-08-21T06:16:01.983Z,14.03
2022-08-21T06:18:28.558Z,14.25
2022-08-21T06:20:54.913Z,14.61
2022-08-21T06:23:21.300Z,14.68
2022-08-21T06:25:59.401Z,14.85
2022-08-21T06:28:26.048Z,15.01
2022-08-21T06:30:52.407Z,15.22
2022-08-21T06:33:18.928Z,15.56
2022-08-21T06:35:45.364Z,15.80
2022-08-21T06:38:11.710Z,15.82
2022-08-21T06:40:47.063Z,15.90
2022-08-21T06:43:17.539Z,15.89
2022-08-21T06:45:44.846Z,16.15
2022-08-21T06:48:14.542Z,16.33
2022-08-21T06:50:43.471Z,16.43
2022-08-21T06:53:13.702Z,16.47
2022-08-21T06:55:42.965Z,16.57
2022-08-21T06:58:10.142Z,16.50
2022-08-21T07:00:40.724Z,16.57
2022-08-21T07:03:07.475Z,16.57
2022-08-21T07:05:33.990Z,16.59
2022-08-21T07:08:00.440Z,16.51
2022-08-21T07:10:27.494Z,16.57
2022-08-21T07:13:01.008Z,16.65
2022-08-21T07:15:30.345Z,16.49
2022-08-21T07:17:58.086Z,16.70
2022-08-21T07:20:24.632Z,16.90
2022-08-21T07:22:51.735Z,17.26
2022-08-21T07:25:18.158Z,17.20
2022-08-21T07:27:44.532Z,17.26
2022-08-21T07:30:11.235Z,17.37
2022-08-21T07:32:37.570Z,17.59
2022-08-21T07:35:04.746Z,17.56
2022-08-21T07:37:31.124Z,17.48
2022-08-21T07:39:57.568Z,17.73
2022-08-21T07:42:24.277Z,17.99
2022-08-21T07:44:51.848Z,18.15
2022-08-21T07:47:41.476Z,18.27
2022-08-21T07:50:08.636Z,18.23
2022-08-21T07:52:35.407Z,18.28
2022-08-21T07:55:06.007Z,18.35
2022-08-21T07:57:33.291Z,18.50
2022-08-21T07:59:59.886Z,18.77
2022-08-21T08:02:29.180Z,18.87
2022-08-21T08:05:00.097Z,18.89
2022-08-21T08:07:27.062Z,19.15
2022-08-21T08:09:53.487Z,19.34
2022-08-21T08:12:20.946Z,19.53
2022-08-21T08:14:47.634Z,19.50
2022-08-21T08:17:16.939Z,19.48
2022-08-21T08:19:43.278Z,19.57
2022-08-21T08:22:22.059Z,19.46
2022-08-21T08:24:49.288Z,19.55
2022-08-21T08:27:17.086Z,19.53
2022-08-21T08:29:44.330Z,19.68
2022-08-21T08:32:10.741Z,19.76
2022-08-21T08:34:37.971Z,19.76
2022-08-21T08:37:05.426Z,20.18
2022-08-21T08:39:33.979Z,20.26
2022-08-21T08:42:33.995Z,20.47
2022-08-21T08:45:17.996Z,20.35
2022-08-21T08:47:50.034Z,20.35
2022-08-21T08:50:27.385Z,20.32
2022-08-21T08:53:01.099Z,20.30
2022-08-21T08:55:36.065Z,20.38
2022-08-21T08:58:03.590Z,20.56
2022-08-21T09:00:31.778Z,20.56
2022-08-21T09:03:01.054Z,20.58
2022-08-21T09:05:43.480Z,20.83
2022-08-21T09:08:25.274Z,20.82
2022-08-21T09:11:03.748Z,20.71
2022-08-21T09:13:54.988Z,20.98
2022-08-21T09:16:41.514Z,21.01
2022-08-21T09:19:24.807Z,21.07
2022-08-21T09:22:08.242Z,21.02
2022-08-21T09:24:58.010Z,20.94
2022-08-21T09:27:24.754Z,21.07
2022-08-21T09:29:55.094Z,21.17
2022-08-21T09:32:36.919Z,21.26
2022-08-21T09:35:20.758Z,21.14
2022-08-21T09:37:53.730Z,21.08
2022-08-21T09:40:44.421Z,21.35
2022-08-21T09:43:19.581Z,21.67
2022-08-21T09:45:47.766Z,21.80
2022-08-21T09:48:26.333Z,21.54
2022-08-21T09:51:05.407Z,21.71
2022-08-21T09:53:35.633Z,22.03
2022-08-21T09:56:35.399Z,22.26
2022-08-21T09:59:01.772Z,22.38
2022-08-21T10:01:28.229Z,22.32
2022-08-21T10:04:35.179Z,22.67
2022-08-21T10:07:15.438Z,22.49
2022-08-21T10:09:42.660Z,22.45
2022-08-21T10:12:26.223Z,22.21
2022-08-21T10:14:59.762Z,22.13
2022-08-21T10:17:45.887Z,22.26
2022-08-21T10:20:23.117Z,22.15
2022-08-21T10:23:07.936Z,22.00
2022-08-21T10:25:56.956Z,21.91
2022-08-21T10:28:36.320Z,21.78
2022-08-21T10:31:36.424Z,22.01
2022-08-21T10:34:25.049Z,22.25
2022-08-21T10:37:21.912Z,22.45
2022-08-21T10:40:22.097Z,22.83
2022-08-21T10:42:54.529Z,23.15
2022-08-21T10:45:50.535Z,23.34
2022-08-21T10:48:42.733Z,23.18
2022-08-21T10:51:34.684Z,23.62
2022-08-21T10:54:24.499Z,23.61
2022-08-21T10:56:59.996Z,23.29
2022-08-21T10:59:32.481Z,23.02
2022-08-21T11:02:23.100Z,22.86
2022-08-21T11:05:23.555Z,22.70
2022-08-21T11:07:55.778Z,22.72
2022-08-21T11:10:28.551Z,22.72
2022-08-21T11:13:23.085Z,22.51
2022-08-21T11:16:06.253Z,22.23
2022-08-21T11:18:38.483Z,22.34
2022-08-21T11:21:20.455Z,22.29
2022-08-21T11:23:54.189Z,22.25
2022-08-21T11:26:31.203Z,22.49
2022-08-21T11:29:12.790Z,22.80
2022-08-21T11:31:50.060Z,23.04
2022-08-21T11:34:31.416Z,23.02
2022-08-21T11:37:16.628Z,23.22
2022-08-21T11:39:52.962Z,23.65
2022-08-21T11:42:57.050Z,23.19
2022-08-21T11:45:36.361Z,23.14
2022-08-21T11:48:21.754Z,23.57
2022-08-21T11:50:51.178Z,23.64
2022-08-21T11:53:25.351Z,23.59
2022-08-21T11:56:01.242Z,23.28
2022-08-21T11:58:42.095Z,23.24
2022-08-21T12:01:15.654Z,23.27
2022-08-21T12:03:54.371Z,23.54
2022-08-21T12:06:33.898Z,23.58
2022-08-21T12:09:06.714Z,23.46
2022-08-21T12:11:33.406Z,23.51
2022-08-21T12:14:01.715Z,23.60
2022-08-21T12:16:41.798Z,24.02
2022-08-21T12:19:21.695Z,23.52
2022-08-21T12:22:12.970Z,23.65
2022-08-21T12:24:51.914Z,22.97
2022-08-21T12:27:20.777Z,22.86
2022-08-21T12:29:50.513Z,23.03
2022-08-21T12:32:16.789Z,23.40
2022-08-21T12:34:49.158Z,23.58
2022-08-21T12:37:15.473Z,23.14
2022-08-21T12:39:45.487Z,23.25
2022-08-21T12:42:19.452Z,23.30
2022-08-21T12:44:54.634Z,22.92
2022-08-21T12:47:51.536Z,23.33
2022-08-21T12:50:45.353Z,23.41
2022-08-21T12:53:36.885Z,23.76
2022-08-21T12:56:05.003Z,24.25
2022-08-21T12:58:32.714Z,23.96
2022-08-21T13:01:25.216Z,23.51
2022-08-21T13:03:55.484Z,23.32
2022-08-21T13:06:38.940Z,23.20
2022-08-21T13:09:09.223Z,23.34
2022-08-21T13:11:36.154Z,23.69
2022-08-21T13:14:05.244Z,23.85
2022-08-21T13:16:32.773Z,24.20
2022-08-21T13:19:06.280Z,24.27
2022-08-21T13:21:41.600Z,24.18
2022-08-21T13:24:38.664Z,24.01
2022-08-21T13:26:58.287Z,24.14
2022-08-21T13:29:30.120Z,24.16
2022-08-21T13:32:02.828Z,23.69
2022-08-21T13:34:37.675Z,23.73
2022-08-21T13:37:08.373Z,24.26
2022-08-21T13:39:35.157Z,24.30
2022-08-21T13:42:07.095Z,24.41
2022-08-21T13:44:45.570Z,24.16
2022-08-21T13:47:14.844Z,23.91
2022-08-21T13:49:46.205Z,24.05
2022-08-21T13:52:22.339Z,24.42
2022-08-21T13:54:59.195Z,24.60
2022-08-21T13:57:32.504Z,24.10
2022-08-21T14:00:13.136Z,23.73
2022-08-21T14:02:42.944Z,23.40
2022-08-21T14:05:21.931Z,23.23
2022-08-21T14:07:51.103Z,23.34
2022-08-21T14:10:23.325Z,23.81
2022-08-21T14:13:01.951Z,23.98
2022-08-21T14:15:31.276Z,23.82
2022-08-21T14:18:15.192Z,23.93
2022-08-21T14:20:41.832Z,23.84
2022-08-21T14:23:08.373Z,23.62
2022-08-21T14:25:44.276Z,23.31
2022-08-21T14:28:50.135Z,23.11
2022-08-21T14:31:21.959Z,23.34
2022-08-21T14:33:48.971Z,23.64
2022-08-21T14:36:15.459Z,23.92
2022-08-21T14:38:42.140Z,24.05
2022-08-21T14:41:20.710Z,23.97
2022-08-21T14:43:47.970Z,23.87
2022-08-21T14:46:28.989Z,24.06
2022-08-21T14:48:55.530Z,24.15
2022-08-21T14:51:22.139Z,23.98
2022-08-21T14:53:48.987Z,24.25
2022-08-21T14:56:16.699Z,24.19
2022-08-21T14:58:46.935Z,24.23
2022-08-21T15:01:15.329Z,24.17
2022-08-21T15:03:41.847Z,23.76
2022-08-21T15:06:09.476Z,23.48
2022-08-21T15:08:36.578Z,23.55
2022-08-21T15:11:14.616Z,23.18
2022-08-21T15:13:44.191Z,23.16
2022-08-21T15:16:12.648Z,23.27
2022-08-21T15:18:39.383Z,23.56
2022-08-21T15:21:06.281Z,23.61
2022-08-21T15:23:32.852Z,23.83
2022-08-21T15:25:59.783Z,23.65
2022-08-21T15:28:27.503Z,23.63
2022-08-21T15:31:00.032Z,23.80
2022-08-21T15:33:26.427Z,23.74
2022-08-21T15:35:52.819Z,23.76
2022-08-21T15:38:19.200Z,23.63
2022-08-21T15:40:52.031Z,23.60
2022-08-21T15:43:30.666Z,23.69
2022-08-21T15:45:59.524Z,23.66
2022-08-21T15:48:26.040Z,23.64
2022-08-21T15:50:52.405Z,23.72
2022-08-21T15:53:19.017Z,23.58
2022-08-21T15:55:45.464Z,23.61
2022-08-21T15:58:17.728Z,23.50
2022-08-21T16:00:45.436Z,23.48
2022-08-21T16:03:17.416Z,23.38
2022-08-21T16:05:49.187Z,23.48
2022-08-21T16:08:15.914Z,23.53
2022-08-21T16:10:42.420Z,23.39
2022-08-21T16:13:17.343Z,23.53
2022-08-21T16:15:43.826Z,23.50
2022-08-21T16:18:10.999Z,23.50
2022-08-21T16:20:37.413Z,23.40
2022-08-21T16:23:03.919Z,23.20
2022-08-21T16:25:30.422Z,23.09
2022-08-21T16:28:02.341Z,23.07
2022-08-21T16:30:30.861Z,22.88
2022-08-21T16:32:57.976Z,22.93
2022-08-21T16:35:25.054Z,23.11
2022-08-21T16:37:53.327Z,23.08
2022-08-21T16:40:20.632Z,23.02
2022-08-21T16:42:48.583Z,23.04
2022-08-21T16:45:18.092Z,23.07
2022-08-21T16:47:45.052Z,23.09
2022-08-21T16:50:22.247Z,23.12
2022-08-21T16:52:48.946Z,23.13
2022-08-21T16:55:15.916Z,23.19
2022-08-21T16:57:42.653Z,23.02
2022-08-21T17:00:13.653Z,22.96
2022-08-21T17:02:44.896Z,22.81
2022-08-21T17:05:13.998Z,22.85
2022-08-21T17:07:42.033Z,22.72
2022-08-21T17:10:10.412Z,22.71
2022-08-21T17:12:36.881Z,22.78
2022-08-21T17:15:08.303Z,22.75
2022-08-21T17:17:35.560Z,22.81
2022-08-21T17:20:02.067Z,22.74
2022-08-21T17:22:28.562Z,22.71
2022-08-21T17:24:55.000Z,22.63
2022-08-21T17:27:26.793Z,22.68
2022-08-21T17:29:54.535Z,22.70
2022-08-21T17:32:21.611Z,22.78
2022-08-21T17:34:48.091Z,22.78
2022-08-21T17:37:15.101Z,22.48
2022-08-21T17:39:41.730Z,22.33
2022-08-21T17:42:11.428Z,22.15
2022-08-21T17:44:39.806Z,22.22
2022-08-21T17:47:07.268Z,22.13
2022-08-21T17:49:33.894Z,22.03
2022-08-21T17:52:00.374Z,21.93
2022-08-21T17:54:27.512Z,21.78
2022-08-21T17:56:55.646Z,21.51
2022-08-21T17:59:23.710Z,21.25
2022-08-21T18:01:50.676Z,21.28
2022-08-21T18:04:17.272Z,21.16
2022-08-21T18:06:44.748Z,21.07
2022-08-21T18:09:12.676Z,21.07
2022-08-21T18:11:41.451Z,21.12
2022-08-21T18:14:08.480Z,20.97
2022-08-21T18:16:37.340Z,20.88
2022-08-21T18:19:09.403Z,20.84
2022-08-21T18:21:37.183Z,20.89
2022-08-21T18:24:04.208Z,20.63
2022-08-21T18:26:34.708Z,20.66
2022-08-21T18:29:02.263Z,20.39
2022-08-21T18:31:31.954Z,20.43
2022-08-21T18:34:00.609Z,20.33
2022-08-21T18:36:29.523Z,20.24
2022-08-21T18:39:08.622Z,20.18
2022-08-21T18:41:40.734Z,20.31
2022-08-21T18:44:07.264Z,20.24
2022-08-21T18:46:33.603Z,20.13
2022-08-21T18:49:00.139Z,20.10
2022-08-21T18:51:26.573Z,20.10
2022-08-21T18:53:56.159Z,20.04
2022-08-21T18:56:22.576Z,19.98
2022-08-21T18:58:50.712Z,19.82
2022-08-21T19:01:17.755Z,19.83
2022-08-21T19:03:44.298Z,19.74
2022-08-21T19:06:11.892Z,19.79
2022-08-21T19:08:38.534Z,19.78
2022-08-21T19:11:06.413Z,19.69
2022-08-21T19:13:33.698Z,19.70
2022-08-21T19:16:03.804Z,19.67
2022-08-21T19:18:33.323Z,19.53
2022-08-21T19:21:01.680Z,19.42
2022-08-21T19:23:29.297Z,19.30
2022-08-21T19:26:00.799Z,19.16
2022-08-21T19:28:34.446Z,19.02
2022-08-21T19:31:10.640Z,18.94
2022-08-21T19:33:40.828Z,18.86
2022-08-21T19:36:12.031Z,18.79
2022-08-21T19:38:39.041Z,18.87
2022-08-21T19:41:09.340Z,18.86
2022-08-21T19:43:42.480Z,18.85
2022-08-21T19:46:09.048Z,18.74
2022-08-21T19:48:36.923Z,18.64
2022-08-21T19:51:04.177Z,18.53
2022-08-21T19:53:30.526Z,18.53
2022-08-21T19:55:56.929Z,18.43
2022-08-21T19:58:34.862Z,18.35
2022-08-21T20:01:05.204Z,18.29
2022-08-21T20:03:43.934Z,18.15
2022-08-21T20:06:10.635Z,18.11
2022-08-21T20:08:37.090Z,17.97
2022-08-21T20:11:06.016Z,18.01
2022-08-21T20:13:33.813Z,18.07
2022-08-21T20:16:02.526Z,18.10
2022-08-21T20:18:31.202Z,18.07
2022-08-21T20:20:57.762Z,17.98
2022-08-21T20:23:30.441Z,17.91
2022-08-21T20:25:58.851Z,17.98
2022-08-21T20:28:27.262Z,18.02
2022-08-21T20:30:55.555Z,18.07
2022-08-21T20:33:22.131Z,18.07
2022-08-21T20:35:49.968Z,17.93
2022-08-21T20:38:16.981Z,17.95
2022-08-21T20:40:44.191Z,18.01
2022-08-21T20:43:12.794Z,18.04
2022-08-21T20:45:40.553Z,17.77
2022-08-21T20:48:49.164Z,17.53
2022-08-21T20:51:28.141Z,17.64
2022-08-21T20:54:22.913Z,17.58
2022-08-21T20:57:16.672Z,17.49
2022-08-21T20:59:52.709Z,17.37
2022-08-21T21:02:35.974Z,17.34
2022-08-21T21:05:06.980Z,17.55
2022-08-21T21:07:47.666Z,17.62
2022-08-21T21:10:23.793Z,17.51
2022-08-21T21:12:55.210Z,17.51
2022-08-21T21:15:29.294Z,17.45
2022-08-21T21:18:13.088Z,17.41
2022-08-21T21:21:32.874Z,17.43
2022-08-21T21:24:07.103Z,17.36
2022-08-21T21:26:44.597Z,17.32
2022-08-21T21:29:34.837Z,17.31
2022-08-21T21:32:04.267Z,17.31
2022-08-21T21:34:36.558Z,17.31
2022-08-21T21:37:07.134Z,17.36
2022-08-21T21:39:46.275Z,17.35
2022-08-21T21:42:31.446Z,17.33
2022-08-21T21:45:23.533Z,17.27
2022-08-21T21:48:10.011Z,17.24
2022-08-21T21:51:01.118Z,17.18
2022-08-21T21:53:45.430Z,17.14
2022-08-21T21:56:40.411Z,17.08
2022-08-21T21:59:25.442Z,17.08
2022-08-21T22:02:27.290Z,17.07
2022-08-21T22:04:59.789Z,17.07
2022-08-21T22:08:02.404Z,17.11
2022-08-21T22:10:46.002Z,17.09
2022-08-21T22:13:26.815Z,16.97
2022-08-21T22:15:54.397Z,16.79
2022-08-21T22:18:26.332Z,16.68
2022-08-21T22:21:00.146Z,16.61
2022-08-21T22:23:31.845Z,16.53
2022-08-21T22:26:08.243Z,16.18
2022-08-21T22:28:41.695Z,16.27
2022-08-21T22:31:21.548Z,16.30
2022-08-21T22:34:06.308Z,16.33
2022-08-21T22:36:36.948Z,16.44
2022-08-21T22:39:14.119Z,16.54
2022-08-21T22:41:44.118Z,16.55
2022-08-21T22:44:53.391Z,16.63
2022-08-21T22:47:24.279Z,16.58
2022-08-21T22:49:53.964Z,16.57
2022-08-21T22:52:26.062Z,16.57
2022-08-21T22:54:57.426Z,16.66
2022-08-21T22:57:30.472Z,16.59
2022-08-21T23:00:10.826Z,16.57
2022-08-21T23:02:49.666Z,16.57
2022-08-21T23:05:20.645Z,16.58
2022-08-21T23:07:50.103Z,16.57
2022-08-21T23:10:26.367Z,16.61
2022-08-21T23:13:09.196Z,16.57
2022-08-21T23:16:05.596Z,16.73
2022-08-21T23:18:57.965Z,16.70
2022-08-21T23:21:46.288Z,16.71
2022-08-21T23:24:50.004Z,16.66
2022-08-21T23:27:35.968Z,16.72
2022-08-21T23:30:02.475Z,16.78
2022-08-21T23:32:57.284Z,16.74
2022-08-21T23:36:04.447Z,16.62
2022-08-21T23:38:55.583Z,16.56
2022-08-21T23:41:40.606Z,16.64
2022-08-21T23:44:06.931Z,16.82
2022-08-21T23:47:10.286Z,16.97
2022-08-21T23:49:47.600Z,16.90
2022-08-21T23:55:31.213Z,16.84
2022-08-21T23:58:16.002Z,16.75
